Sabinopolis, Brazil
Current Conditions -  °F | °C
As of 7:00 PM on Friday 19 Dec 2014 (Local Time) from SBIP Reporting Station
Clear Clear  
Wind Chill: 84°   Ceiling: Unl
Heat Index: 86°   Visibility: 6mi
Dew Point: 64°   Wind: 8mph
Humidity: 51%   Direction: 30°NNE
Pressure: 29.77"   Gusts: NA
Location:  18.67°S, 43.08°W
Report Text: SBIP 192100Z 03007KT CAVOK 29/18 Q1008
Loading
Personal Weather Stations






























Interactive Weather Map New forecast layout! Learn more

10-Day Weather Forecast

Advertisements
Track Severe Weather on mobile